Izei Lorenzo

チーフスカウト - Las Palmas
8 1月 2028
土曜日
処理

性格

適応力 (7) 野心 (15) 物議 (18) 忠誠心 (20) プレッシャー耐性 (4) プロ意識 (6) スポーツマンシップ (10) 気質 (7)

プロフィール

指導スタイル 民主型
ライセンス 大陸プロ
決断力 8
人材管理 13
モチベーション 5
規律 10
仕事満足度
63%
疲労度
0%
役職 チーフスカウト
給与 26.7K 週給
契約 14.03.2029

パフォーマンス

態度 良い
トレーニング効果
32%
選手育成
35%
怪我予防
35%
戦術実行
60%

最近の出来事

補強会議に出席 たった今
補強会議に出席 たった今
補強会議に出席 たった今
補強会議に出席 たった今
補強会議に出席 たった今
補強会議に出席 たった今
獲得候補を推薦 たった今
役員会に資料を提出 7日前

監視中

235
選手 クラブ 状態 能力 自信 視察済み 最終確認 最新投票
Gonzalo Almenara Ceuta レポート準備完了 106 / 102 76% 1 06.01.2028 -
Mateo Aguiar Defensa y Justicia 交渉中 116 / 119 40% 3 01.01.2028 -
Nicolás Fernández Mercau Alavés アクティブ 134 / 134 67% 1 01.01.2028 承認
Pedro de la Vega Leganés 交渉中 133 / 134 90% 1 01.01.2028 -
Santiago Sala Güemes アクティブ 117 / 114 40% 10 30.12.2027 -
Franco Ayunta Temperley アクティブ 107 / 108 40% 7 30.12.2027 -
Ivo Costantino Cerro Largo アクティブ 115 / 113 40% 1 30.12.2027 -
Alejo Cruz Juventud アクティブ 123 / 119 40% 5 28.12.2027 -
Patrick Preciado Deportivo Pasto アクティブ 111 / 111 40% 4 28.12.2027 -
Santiago Sanchez Santa Fe アクティブ 141 / 134 40% 7 27.12.2027 -
Fabricio Rojas Gimnasia y Tiro アクティブ 107 / 111 40% 5 26.12.2027 -
Marco Miori Alvarado アクティブ 111 / 112 40% 8 26.12.2027 -
Alexander Díaz Deportivo Riestra アクティブ 121 / 120 40% 13 25.12.2027 -
Santiago Apa All Boys アクティブ 110 / 109 40% 3 24.12.2027 -
Agustín Hausch Caracas アクティブ 127 / 121 40% 5 24.12.2027 -
Kelvin Flórez Junior アクティブ 113 / 124 40% 2 24.12.2027 -
Thiago Calone All Boys アクティブ 112 / 116 40% 7 23.12.2027 -
Gastón Verón Argentinos Juniors アクティブ 124 / 122 40% 6 22.12.2027 -
Mario Galeano Independiente アクティブ 111 / 112 40% 3 22.12.2027 -
Maclyn Biokpo Jenewari Rivers United アクティブ 105 / 106 40% 3 22.12.2027 -
Enzo González Defensores アクティブ 111 / 103 40% 7 19.12.2027 -
Lisandro Cabrera Maipú アクティブ 119 / 114 40% 3 19.12.2027 -
Genaro Rossi San Martín SJ アクティブ 112 / 108 40% 1 18.12.2027 -
Ramiro Ruiz Rodríguez Atlético Tucumán アクティブ 123 / 118 40% 6 17.12.2027 -
Alejandro Piedrahita Deportivo Pereira アクティブ 130 / 128 40% 5 17.12.2027 -
Enzo Avaro Mitre アクティブ 114 / 114 40% 5 16.12.2027 -
Franco Fagúndez Estudiantes アクティブ 117 / 112 40% 4 13.12.2027 -
Mauricio Márquez Caracas アクティブ 109 / 108 40% 1 13.12.2027 -
Luca Langoni New England Revolution アクティブ 133 / 129 40% 2 09.12.2027 -
Luca Martínez Dupuy Godoy Cruz アクティブ 129 / 122 40% 5 07.12.2027 -
Ruyery Blanco Alianza Petrolera アクティブ 115 / 109 40% 4 06.12.2027 -
Agustín Venezia Iquique アクティブ 116 / 113 40% 2 05.12.2027 -
Juan Peñaloza Alianza Petrolera アクティブ 109 / 110 40% 5 05.12.2027 -
Alexis Cuello San Lorenzo アクティブ 128 / 126 40% 5 02.12.2027 -
Camilo Rey Domenech Racing Club アクティブ 123 / 128 40% 4 02.12.2027 -
Tiziano Noriega Tristán Suárez アクティブ 95 / 97 40% 1 02.12.2027 -
Gonzalo Flores Almirante Brown アクティブ 108 / 113 40% 4 30.11.2027 -
Martín Ojeda Orlando City アクティブ 140 / 141 40% 1 30.11.2027 -
Joel Medina Independiente アクティブ 111 / 119 40% 2 27.11.2027 -
Mateo Silvetti Inter Miami CF アクティブ 127 / 121 40% 2 27.11.2027 -
Nicolás Cordero Aldosivi アクティブ 116 / 119 40% 8 26.11.2027 -
Agustín Medina Lanús アクティブ 112 / 123 40% 6 23.11.2027 -
Nicolás Azambuja Danubio アクティブ 114 / 128 40% 3 23.11.2027 -
Mateo Peralta Danubio アクティブ 112 / 117 40% 1 23.11.2027 -
Oskar Spiten-Nysæter Molde アクティブ 113 / 123 40% 2 22.11.2027 -
Felipe Obradovich Gimnasia La Plata アクティブ 111 / 115 40% 5 19.11.2027 -
Diogo Guzmán Montevideo City Torque アクティブ 119 / 118 40% 5 19.11.2027 -
Augusto Berrondo Tristán Suárez アクティブ 108 / 111 40% 2 19.11.2027 -
Mauro Carrizo Atlético Tucumán アクティブ 99 / 107 40% 2 19.11.2027 -
Fernando Mimbacas Juventud アクティブ 113 / 115 40% 3 17.11.2027 -
Sunday Aniebet Enyimba アクティブ 98 / 103 40% 4 17.11.2027 -
Felix Mosquera Deportes Quindio アクティブ 95 / 98 40% 4 17.11.2027 -
Tiziano Dornell Almagro アクティブ 115 / 118 40% 9 14.11.2027 -
Marcos Camarda Santiago Wanderers アクティブ 112 / 112 40% 1 14.11.2027 -
Juan Rocca Gimnasia y Tiro アクティブ 111 / 109 40% 10 13.11.2027 -
Jeriel De Santis Caracas アクティブ 107 / 106 40% 1 13.11.2027 -
Tomás Conechny Racing Club アクティブ 131 / 124 40% 1 12.11.2027 -
Mateo Pérez Curci Independiente アクティブ 113 / 122 40% 3 10.11.2027 -
Facundo Balatti Penarol アクティブ 105 / 110 40% 1 10.11.2027 -
Valentino Huertas Morón アクティブ 97 / 108 40% 1 07.11.2027 -
Francisco Bonfiglio Boston River アクティブ 110 / 108 40% 1 07.11.2027 -
Carlos Gugenheim Almirante Brown アクティブ 116 / 114 40% 2 02.11.2027 -
Diego García Malmo FF アクティブ 133 / 116 40% 1 02.11.2027 -
Tomás Fernández Aldosivi アクティブ 120 / 118 40% 1 01.11.2027 -
Thiago Szkaluba Santiago Wanderers アクティブ 89 / 104 40% 2 31.10.2027 -
Bautista Carboni Defensores Unidos アクティブ 106 / 111 40% 1 31.10.2027 -
Luciano Strey Patronato アクティブ 91 / 99 40% 1 31.10.2027 -
Gonzalo Gelini Boca Juniors アクティブ 120 / 126 40% 3 30.10.2027 -
Dilan Godoy Vélez アクティブ 106 / 118 40% 5 28.10.2027 -
Matías Acevedo Racing Club アクティブ 109 / 118 40% 3 28.10.2027 -
Giovanni Baroni San Lorenzo アクティブ 113 / 118 40% 1 27.10.2027 -
Luka Andrade Montevideo City Torque アクティブ 100 / 111 40% 1 26.10.2027 -
Celías Ingenthron Platense アクティブ 114 / 120 40% 2 24.10.2027 -
Sergio Castillo Cortulua アクティブ 99 / 113 40% 5 24.10.2027 -
Wilfred Correa Caracas アクティブ 96 / 98 40% 2 22.10.2027 -
Tahiel Peralta Vélez アクティブ 114 / 121 40% 2 21.10.2027 -
Chimobi Igwilo Rangers International アクティブ 83 / 98 40% 1 20.10.2027 -
Halam Loboa Independiente Medellin アクティブ 115 / 127 40% 2 14.10.2027 -
Nahuel Leivas Montevideo City Torque アクティブ 106 / 106 40% 2 13.10.2027 -
Emiliano Zambrano Gimnasia y Esgrima アクティブ 97 / 99 40% 1 13.10.2027 -
Esteban de Lima Tacuarembo アクティブ 88 / 99 40% 1 11.10.2027 -
Valentino Acuña Newell's Old Boys アクティブ 115 / 117 40% 4 10.10.2027 -
Abubakar Garba Nasarawa United アクティブ 85 / 98 40% 1 08.10.2027 -
Sebastián Ramírez America de Cali アクティブ 102 / 116 40% 2 04.10.2027 -
Jhon Renteria Sarmiento アクティブ 109 / 114 40% 1 04.10.2027 -
Nazareno Roselli Defensa y Justicia アクティブ 113 / 118 40% 2 12.09.2027 -
Inti Borghetto Patronato アクティブ 97 / 93 40% 1 12.09.2027 -
Teo Rodríguez Pagano San Lorenzo アクティブ 122 / 126 40% 1 12.09.2027 -
Santiago Espíndola River Plate アクティブ 101 / 116 40% 1 10.09.2027 -
Octavio Ontivero Lanús アクティブ 112 / 112 40% 1 10.09.2027 -
Juan Giménez Rosario Central アクティブ 109 / 125 40% 1 09.09.2027 -
Mbekezeli Mbokazi Chicago Fire アクティブ 117 / 132 40% 1 09.09.2027 -
Sheriff Amuda Shooting Stars アクティブ 96 / 98 40% 1 08.09.2027 -
Matías Argüello Libertad アクティブ 104 / 103 40% 1 08.09.2027 -
Lautaro Dufur Rentistas アクティブ 101 / 108 40% 1 08.09.2027 -
Lucio Ferrari Talleres アクティブ 96 / 108 40% 1 06.09.2027 -
Olaniyi Saheed Kwara United アクティブ 91 / 105 40% 1 30.08.2027 -
Agustín De la Cuesta Argentinos Juniors アクティブ 110 / 114 40% 1 30.08.2027 -
Facundo Gulli San Lorenzo アクティブ 126 / 127 40% 4 23.08.2027 -
Joel Canchimbo Atletico Nacional アクティブ 114 / 119 40% 1 05.07.2027 -
Sindre Walle Egeli Nottingham Forest アクティブ 127 / 137 40% 1 05.07.2027 -
Martin Cedidla Torino 交渉中 131 / 132 66% 1 01.06.2027 承認
Alpha Touré FC Metz アクティブ 116 / 122 40% 2 31.05.2027 -
Yusi Alavés アクティブ 123 / 130 40% 3 30.05.2027 観察
João Teixeira Porto アクティブ 108 / 119 40% 4 25.05.2027 -
Christos Mouzakitis Hull City アクティブ 132 / 135 40% 1 25.05.2027 -
Emile Smith Rowe Fulham アクティブ 146 / 148 40% 5 24.05.2027 -
Kevin Schade Brentford アクティブ 150 / 151 40% 3 24.05.2027 -
Pau Víctor Estrela da Amadora アクティブ 146 / 136 40% 8 22.05.2027 観察
Jon Garro Real Sociedad アクティブ 93 / 97 67% 5 22.05.2027 観察
Chemsdine Talbi Sunderland アクティブ 139 / 144 40% 2 20.05.2027 -
Mikkel Damsgaard Brentford アクティブ 153 / 142 40% 1 20.05.2027 -
Héctor Fort Real Sociedad アクティブ 136 / 143 40% 1 20.05.2027 -
Dylan Gorosito Boca Juniors アクティブ 115 / 120 40% 1 20.05.2027 -
Facundo Infante Talleres アクティブ 89 / 93 40% 1 20.05.2027 -
Gonzalo Fulham アクティブ 149 / 144 40% 11 17.05.2027 -
Enzo Loiodice KAA Gent アクティブ 135 / 127 40% 4 17.05.2027 -
Jonathan Dubasin Osasuna アクティブ 144 / 146 40% 3 16.05.2027 -
Jeon Jin-Woo Sheffield Wednesday アクティブ 136 / 128 40% 1 16.05.2027 -
Álex Valle Como アクティブ 133 / 137 40% 6 14.05.2027 -
Aimar Osasuna アクティブ 153 / 145 40% 6 13.05.2027 -
Dango Ouattara Brentford アクティブ 149 / 142 40% 2 13.05.2027 -
Mario Soriano Deportivo La Coruña アクティブ 130 / 135 40% 1 13.05.2027 -
Gaspar Gijón アクティブ 145 / 138 40% 6 12.05.2027 観察
David Larrubia Málaga アクティブ 134 / 130 40% 4 12.05.2027 -
Pablo Torre Mallorca アクティブ 151 / 148 40% 1 12.05.2027 -
Andrés Martín Racing Santander アクティブ 138 / 134 40% 5 11.05.2027 -
Erick Sánchez Valladolid アクティブ 142 / 136 40% 8 11.05.2027 -
Christantus Uche Getafe アクティブ 145 / 144 40% 2 09.05.2027 -
Roberto Fernández Braga アクティブ 141 / 145 40% 11 07.05.2027 観察
Finn Azaz Southampton アクティブ 136 / 126 40% 2 06.05.2027 -
Gladson Sulemana Liberty Professionals アクティブ 94 / 105 40% 1 06.05.2027 -
Julio Enciso Ipswich Town アクティブ 144 / 144 40% 3 05.05.2027 -
Fer López Wolverhampton アクティブ 138 / 137 40% 2 05.05.2027 -
Pol Lozano Espanyol アクティブ 141 / 136 40% 3 04.05.2027 -
Urko Izeta Cádiz アクティブ 128 / 135 40% 4 02.05.2027 -
Kevin Fulham アクティブ 149 / 147 40% 4 02.05.2027 -
Santi García Gil Vicente アクティブ 133 / 131 40% 3 30.04.2027 -
Iván Romero Levante アクティブ 141 / 138 40% 2 30.04.2027 -
Juanlu Bournemouth アクティブ 153 / 146 40% 2 25.04.2027 -
Abel Ruiz Girona アクティブ 141 / 142 40% 2 20.04.2027 -
Riquelme Thompson-Jones Shrewsbury Town アクティブ 101 / 117 40% 2 18.04.2027 -
Enzo Cardozo Virtus Entella アクティブ 103 / 118 40% 1 18.04.2027 -
Lucas Jetten Cambuur アクティブ 108 / 117 40% 1 18.04.2027 -
Omar El Hilali Espanyol アクティブ 157 / 151 40% 4 13.04.2027 -
Tyrhys Dolan Espanyol アクティブ 137 / 134 40% 3 13.04.2027 -
Nico Melamed Almería アクティブ 135 / 136 40% 2 08.04.2027 -
Helinho Toluca アクティブ 124 / 126 40% 1 08.04.2027 -
Loum Tchaouna Coventry City アクティブ 132 / 141 40% 1 07.04.2027 -
Carlos Vicente Udinese アクティブ 138 / 141 40% 1 05.04.2027 -
César Huerta Pumas UNAM アクティブ 127 / 119 40% 2 04.04.2027 -
Carlos Álvarez Club America アクティブ 139 / 140 40% 5 03.04.2027 -
Samuel Lucero Defensa y Justicia アクティブ 113 / 124 40% 4 31.03.2027 -
José Pachuca Puebla アクティブ 115 / 118 40% 3 31.03.2027 -
Pau Navarro Villarreal アクティブ 140 / 147 40% 1 28.03.2027 -
Ezequiel Bullaude Santos Laguna アクティブ 130 / 125 40% 1 26.03.2027 -
Louis Leroux FC Nantes アクティブ 121 / 126 40% 2 25.03.2027 -
Sam Curtis Swindon Town アクティブ 95 / 109 40% 1 21.03.2027 -
Toni Tamarit Alverca アクティブ 121 / 120 40% 2 19.03.2027 -
Jofre Torrents Ajax アクティブ 118 / 132 40% 1 19.03.2027 -
Diego Lainez Tigres アクティブ 129 / 130 40% 1 19.03.2027 -
Yussif Saidu Zaragoza アクティブ 119 / 123 40% 1 15.03.2027 -
Santiago Fernández Eibar アクティブ 120 / 127 40% 1 15.03.2027 -
Brian Gutiérrez Guadalajara アクティブ 128 / 134 40% 1 04.03.2027 -
Jonathan De Irastorza Levante アクティブ 124 / 127 40% 1 04.03.2027 -
Caleb Yirenkyi Coventry City アクティブ 129 / 137 40% 1 03.03.2027 -
Mao Hosoya Manchester City 交渉中 134 / 135 67% 1 01.01.2027 -
Felipe Peña Biafore Lanús アクティブ 124 / 125 40% 2 30.12.2026 -
Christian Krasnodar アクティブ 134 / 129 40% 1 30.12.2026 -
Ramón Valladolid アクティブ 125 / 129 40% 1 29.12.2026 -
Marco Pellegrino Boca Juniors アクティブ 129 / 128 40% 1 28.12.2026 -
Guille Rosas Gijón アクティブ 134 / 134 40% 1 28.12.2026 -
Marco Di Cesare Racing Club アクティブ 124 / 130 40% 1 28.12.2026 -
Antonio Blanco Alavés アクティブ 139 / 139 40% 1 27.12.2026 -
Franco Romero Toluca アクティブ 124 / 124 40% 1 27.12.2026 -
Bojan Kovačević Cádiz アクティブ 133 / 132 40% 1 27.12.2026 -
Santiago Núñez Estudiantes アクティブ 131 / 127 40% 2 26.12.2026 -
Joaquín García Vélez アクティブ 123 / 123 40% 1 26.12.2026 -
Nazareno Colombo Racing Club アクティブ 129 / 122 40% 2 23.12.2026 -
Manu Morlanes Mallorca アクティブ 134 / 131 40% 2 23.12.2026 -
Adrien Truffert Bournemouth アクティブ 147 / 148 40% 1 23.12.2026 -
Alejandro Pozo Ipswich Town アクティブ 122 / 120 40% 1 22.12.2026 -
Francisco Álvarez Argentinos Juniors アクティブ 120 / 126 40% 1 19.12.2026 -
Gastón Benedetti Estudiantes アクティブ 130 / 128 40% 3 18.12.2026 -
Facundo Zabala Independiente アクティブ 129 / 127 40% 1 18.12.2026 -
Pedro Vite Pumas UNAM アクティブ 125 / 118 40% 1 18.12.2026 -
Federico Navarro Rosario Central アクティブ 122 / 126 40% 1 16.12.2026 -
Santiago Segovia Rosario Central アクティブ 109 / 114 40% 2 12.12.2026 -
Bobby Clark Derby County アクティブ 119 / 125 40% 1 11.12.2026 -
Leandro Lozano Boca Juniors アクティブ 127 / 127 40% 1 11.12.2026 -
Matías Fernández-Pardo Newcastle United アクティブ 142 / 145 40% 2 09.12.2026 -
Fabrizio Sartori Independiente Rivadavia アクティブ 112 / 115 40% 1 08.12.2026 -
Thiago Acosta River Plate アクティブ 108 / 119 40% 3 01.12.2026 -
Elías Torres Racing Club アクティブ 126 / 117 40% 1 01.12.2026 -
Max Svensson Penafiel アクティブ 109 / 111 40% 1 01.12.2026 -
Jan Virgili Club Brugge アクティブ 131 / 133 40% 1 01.12.2026 -
Tomás Aranda Boca Juniors アクティブ 109 / 122 40% 1 30.11.2026 -
Lautaro Gordillo Colegiales アクティブ 107 / 110 40% 3 29.11.2026 -
Mauro Molina Estudiantes アクティブ 114 / 108 40% 1 29.11.2026 -
Igor Jesus Nottingham Forest アクティブ 146 / 143 40% 1 27.11.2026 -
Matías Giménez Rojas Argentinos Juniors アクティブ 128 / 119 40% 3 24.11.2026 -
Florián Monzón Atlas アクティブ 134 / 129 40% 3 23.11.2026 -
Pablo Rodríguez Lech アクティブ 135 / 120 40% 1 22.11.2026 -
Marcos Machado Mitre アクティブ 109 / 112 40% 2 20.11.2026 -
Ignacio Russo Tigre アクティブ 132 / 127 40% 4 19.11.2026 -
Nicolás Molina Temperley アクティブ 107 / 104 40% 2 18.11.2026 -
Alberto Soro Dinamo Bucharest アクティブ 119 / 112 40% 1 16.11.2026 -
Tomás González Unión de Santa Fe アクティブ 112 / 119 40% 2 08.11.2026 -
Misael Sosa Godoy Cruz アクティブ 118 / 114 40% 1 07.11.2026 -
Sebastián Cocimano Nueva Chicago アクティブ 117 / 112 40% 2 06.11.2026 -
Omar Campos Cruz Azul アクティブ 124 / 118 40% 1 06.11.2026 -
Tomás Silva Platense アクティブ 121 / 122 40% 1 05.11.2026 -
Franco Minerva Platense アクティブ 113 / 126 40% 5 04.11.2026 -
Ezequiel Almirón Estudiantes アクティブ 112 / 111 40% 1 27.10.2026 -
Renzo Reynaga Patronato アクティブ 104 / 106 40% 1 19.10.2026 -
Lautaro Mora Huracán アクティブ 100 / 111 40% 1 13.10.2026 -
Sergio Barreto Pachuca アクティブ 121 / 137 40% 2 11.10.2026 -
Ramiro Hernandes Belgrano アクティブ 117 / 127 40% 1 11.10.2026 -
Vicente Poggi Godoy Cruz アクティブ 121 / 128 40% 1 11.10.2026 -
Ilaix Moriba Celta アクティブ 141 / 155 40% 1 11.10.2026 -
Juan Pablo Arango Talleres アクティブ 94 / 103 40% 2 06.10.2026 -
Facundo Kalinger Huracán アクティブ 100 / 106 40% 1 30.09.2026 -
Arda Güler Real Madrid アクティブ 144 / 147 40% 1 29.09.2026 -
Jerónimo Russo Newell's Old Boys アクティブ 92 / 109 40% 1 27.09.2026 -
Xavier Biscayzacú Sporting CP アクティブ 118 / 130 40% 1 21.09.2026 -
Pedro Porro Tottenham アクティブ 139 / 145 40% 2 19.09.2026 -
Favio Cabral Mitre アクティブ 117 / 115 40% 1 17.09.2026 -
Juan Miranda Bologna アクティブ 137 / 134 40% 1 16.09.2026 -
César Ibáñez Huracán アクティブ 118 / 124 40% 1 11.09.2026 -
Agustín Paz Progreso アクティブ 115 / 118 40% 1 08.09.2026 -
Maximiliano Rodríguez Huachipato アクティブ 120 / 112 40% 1 07.09.2026 -
Carles Gil New England Revolution アクティブ 131 / 127 40% 1 04.08.2026 -
Mauricio Asenjo Los Andes アクティブ 111 / 118 40% 1 04.08.2026 -
Enzo Copetti Rosario Central アクティブ 118 / 129 40% 1 04.08.2026 -
Alan Forneris Racing Club アクティブ 105 / 118 40% 1 04.08.2026 -